Euskara    
Meteorología y climatología de Navarra
Datos de la estación - Meteo Navarra

Estación de Aguilar de Codés GN

Altitud 736 m.


Datos desde el 14/01/2021 hasta el 15/01/2021 en horario solar
Los datos son PROVISIONALES

Anterior Página 1 de 1 Siguiente Descargar: Formato para Excel 2000 o superior   Formato csv   Formato para OpenOffice Calc
Fecha Temperatura Humedad relativa Radiación global Insolación Precipitación Vel. viento 10 m Vel. viento 10 m Dir. viento 10 m
°C % W/m² s l/m² m/s km/h °
14/01/2021 0:00 2.4 83 0.0 0 0.0 4.8 17.2 321
14/01/2021 0:10 2.4 83 0.0 0 0.0 4.5 16.3 324
14/01/2021 0:20 2.4 83 0.0 0 0.0 5.6 20.2 326
14/01/2021 0:30 2.5 82 0.0 0 0.0 5.5 19.8 322
14/01/2021 0:40 2.5 82 0.0 0 0.0 5.5 19.7 323
14/01/2021 0:50 2.5 82 0.0 0 0.0 4.6 16.7 316
14/01/2021 1:00 2.4 82 0.0 0 0.0 4.0 14.5 317
14/01/2021 1:10 2.2 83 0.0 0 0.0 4.1 14.8 319
14/01/2021 1:20 2.0 84 0.0 0 0.0 3.7 13.2 318
14/01/2021 1:30 1.9 85 0.0 0 0.0 3.6 13.0 317
14/01/2021 1:40 2.0 84 0.0 0 0.0 3.8 13.5 313
14/01/2021 1:50 1.8 84 0.0 0 0.0 4.1 14.6 315
14/01/2021 2:00 1.7 85 0.0 0 0.0 4.1 14.9 314
14/01/2021 2:10 1.5 86 0.0 0 0.0 3.3 11.7 314
14/01/2021 2:20 1.6 85 0.0 0 0.0 3.7 13.4 315
14/01/2021 2:30 1.7 85 0.0 0 0.0 3.6 12.9 316
14/01/2021 2:40 1.5 85 0.0 0 0.0 4.1 14.6 315
14/01/2021 2:50 1.5 86 0.0 0 0.0 4.2 14.9 316
14/01/2021 3:00 1.5 86 0.0 0 0.0 4.2 15.3 319
14/01/2021 3:10 1.9 85 0.0 0 0.0 4.9 17.7 320
14/01/2021 3:20 1.9 84 0.0 0 0.0 4.4 15.8 321
14/01/2021 3:30 1.9 85 0.0 0 0.0 5.5 19.7 324
14/01/2021 3:40 1.7 85 0.0 0 0.0 4.8 17.1 327
14/01/2021 3:50 1.7 86 0.0 0 0.0 4.0 14.5 325
14/01/2021 4:00 2.0 85 0.0 0 0.0 4.3 15.6 322
14/01/2021 4:10 2.2 84 0.0 0 0.0 3.7 13.3 316
14/01/2021 4:20 2.4 83 0.0 0 0.0 4.7 16.9 317
14/01/2021 4:30 2.2 83 0.0 0 0.0 5.4 19.5 321
14/01/2021 4:40 2.2 84 0.0 0 0.0 4.7 16.8 316
14/01/2021 4:50 2.2 83 0.0 0 0.0 4.5 16.2 317
14/01/2021 5:00 2.2 83 0.0 0 0.0 4.3 15.4 318
14/01/2021 5:10 2.1 83 0.0 0 0.0 4.3 15.5 322
14/01/2021 5:20 2.3 83 0.0 0 0.0 4.9 17.5 324
14/01/2021 5:30 2.2 83 0.0 0 0.0 4.2 15.1 316
14/01/2021 5:40 2.3 83 0.0 0 0.0 4.5 16.3 313
14/01/2021 5:50 2.2 83 0.0 0 0.0 3.2 11.6 309
14/01/2021 6:00 2.1 83 0.0 0 0.0 3.1 11.2 317
14/01/2021 6:10 2.2 82 0.0 0 0.0 2.9 10.5 310
14/01/2021 6:20 2.3 82 0.0 0 0.0 2.0 7.1 287
14/01/2021 6:30 2.3 82 0.0 0 0.0 2.1 7.4 284
14/01/2021 6:40 2.3 83 0.0 0 0.0 2.2 8.1 311
14/01/2021 6:50 2.3 83 0.0 0 0.0 1.7 6.1 301
14/01/2021 7:00 2.4 83 0.0 0 0.0 3.2 11.6 311
14/01/2021 7:10 2.3 83 0.0 0 0.0 3.2 11.4 319
14/01/2021 7:20 2.5 83 0.0 0 0.0 4.0 14.3 320
14/01/2021 7:30 2.3 83 0.0 0 0.0 4.1 14.8 322
14/01/2021 7:40 2.3 83 0.0 0 0.0 5.3 19.1 326
14/01/2021 7:50 2.1 84 0.7 0 0.0 5.9 21.2 327
14/01/2021 8:00 2.2 84 11.2 0 0.0 5.9 21.2 327
14/01/2021 8:10 2.1 84 24.8 96 0.0 5.7 20.3 323
14/01/2021 8:20 2.3 83 25.1 0 0.0 5.7 20.3 317
14/01/2021 8:30 2.4 82 33.2 0 0.0 5.8 20.7 319
14/01/2021 8:40 2.3 83 68.4 182 0.0 8.1 29.1 326
14/01/2021 8:50 2.4 83 58.0 66 0.0 8.3 30.0 326
14/01/2021 9:00 2.4 83 48.1 0 0.0 8.2 29.4 330
14/01/2021 9:10 2.4 83 59.8 0 0.0 8.8 31.6 329
14/01/2021 9:20 2.4 83 87.9 0 0.0 8.5 30.6 326
14/01/2021 9:30 2.5 82 95.5 0 0.0 8.1 29.2 327
14/01/2021 9:40 2.8 81 113.0 0 0.0 6.9 24.7 327
14/01/2021 9:50 3.0 80 130.9 0 0.0 7.3 26.1 322
14/01/2021 10:00 3.2 80 156.2 156 0.0 7.8 28.0 323
14/01/2021 10:10 3.4 79 188.6 468 0.0 7.4 26.5 317
14/01/2021 10:20 3.4 79 214.2 554 0.0 6.5 23.5 320
14/01/2021 10:30 3.6 78 196.9 316 0.0 6.5 23.3 318
14/01/2021 10:40 3.6 78 189.9 64 0.0 6.2 22.2 315
14/01/2021 10:50 3.6 78 183.1 0 0.0 5.6 20.2 320
14/01/2021 11:00 3.7 78 191.9 84 0.0 5.8 20.9 314
14/01/2021 11:10 3.8 78 258.8 288 0.0 6.6 23.7 323
14/01/2021 11:20 3.9 77 380.7 450 0.0 6.7 24.0 320
14/01/2021 11:30 4.2 76 332.0 374 0.0 6.8 24.4 323
14/01/2021 11:40 4.2 76 389.5 440 0.0 6.1 22.1 320
14/01/2021 11:50 4.4 76 470.7 574 0.0 5.5 19.9 318
14/01/2021 12:00 4.6 74 469.8 592 0.0 5.5 19.7 315
14/01/2021 12:10 4.7 74 484.6 596 0.0 5.5 19.6 312
14/01/2021 12:20 4.7 74 490.2 600 0.0 5.2 18.6 313
14/01/2021 12:30 4.7 74 488.9 600 0.0 4.6 16.4 300
14/01/2021 12:40 4.7 74 485.9 600 0.0 4.9 17.6 308
14/01/2021 12:50 4.7 74 481.3 600 0.0 5.9 21.2 312
14/01/2021 13:00 4.6 74 475.9 600 0.0 6.2 22.2 312
14/01/2021 13:10 4.7 74 469.2 600 0.0 5.3 19.0 309
14/01/2021 13:20 4.7 74 459.8 600 0.0 6.6 23.9 314
14/01/2021 13:30 4.6 74 454.1 600 0.0 7.1 25.4 315
14/01/2021 13:40 4.5 74 453.3 600 0.0 7.2 25.7 315
14/01/2021 13:50 4.5 74 411.7 600 0.0 7.3 26.3 320
14/01/2021 14:00 4.6 75 360.5 600 0.0 6.4 23.1 322
14/01/2021 14:10 4.5 74 279.1 600 0.0 7.1 25.5 314
14/01/2021 14:20 4.4 74 296.0 600 0.0 6.9 24.9 319
14/01/2021 14:30 4.5 74 349.7 600 0.0 6.5 23.3 316
14/01/2021 14:40 4.4 75 289.0 600 0.0 6.1 21.9 315
14/01/2021 14:50 4.5 75 212.9 474 0.0 5.1 18.3 316
14/01/2021 15:00 4.3 76 242.4 380 0.0 5.1 18.3 317
14/01/2021 15:10 4.7 75 218.9 600 0.0 4.3 15.5 307
14/01/2021 15:20 4.7 75 114.6 8 0.0 4.4 15.7 305
14/01/2021 15:30 4.5 76 121.2 328 0.0 3.9 13.9 300
14/01/2021 15:40 4.4 78 60.5 0 0.0 3.1 11.2 297
14/01/2021 15:50 4.2 80 66.5 0 0.0 4.3 15.4 303
14/01/2021 16:00 4.0 84 45.3 0 0.0 4.5 16.3 307
14/01/2021 16:10 3.6 87 54.0 0 0.0 4.2 15.2 312
14/01/2021 16:20 3.6 89 45.4 0 0.0 3.5 12.6 303
14/01/2021 16:30 3.6 90 24.0 0 0.0 3.6 12.9 306
14/01/2021 16:40 3.5 92 18.3 0 0.0 3.3 12.0 308
14/01/2021 16:50 3.5 94 8.7 0 0.0 3.7 13.2 305
14/01/2021 17:00 3.6 94 0.0 0 0.0 3.9 14.0 303
14/01/2021 17:10 3.6 95 0.0 0 0.0 3.4 12.3 296
14/01/2021 17:20 3.8 95 0.0 0 0.0 3.7 13.4 292
14/01/2021 17:30 4.1 95 0.0 0 0.0 3.9 13.9 302
14/01/2021 17:40 4.0 94 0.0 0 0.0 4.3 15.4 303
14/01/2021 17:50 3.8 94 0.0 0 0.0 3.8 13.5 294
14/01/2021 18:00 3.8 95 0.0 0 0.0 3.8 13.5 293
14/01/2021 18:10 4.1 95 0.0 0 0.0 3.5 12.5 301
14/01/2021 18:20 4.1 95 0.0 0 0.0 4.2 15.0 303
14/01/2021 18:30 4.0 96 0.0 0 0.0 4.4 15.7 310
14/01/2021 18:40 3.8 96 0.0 0 0.0 4.3 15.4 312
14/01/2021 18:50 3.9 97 0.0 0 0.0 4.6 16.5 309
14/01/2021 19:00 3.7 97 0.0 0 0.0 4.7 16.7 307
14/01/2021 19:10 4.0 97 0.0 0 0.0 4.4 15.7 303
14/01/2021 19:20 4.1 97 0.0 0 0.0 4.2 15.1 315
14/01/2021 19:30 4.3 97 0.0 0 0.0 4.3 15.6 306
14/01/2021 19:40 4.4 96 0.0 0 0.0 4.4 15.7 305
14/01/2021 19:50 4.6 96 0.0 0 0.0 4.1 14.8 295
14/01/2021 20:00 4.9 95 0.0 0 0.0 4.8 17.2 299
14/01/2021 20:10 4.8 95 0.0 0 0.0 5.4 19.5 300
14/01/2021 20:20 4.8 95 0.0 0 0.0 5.6 20.1 302
14/01/2021 20:30 4.6 95 0.0 0 0.0 5.1 18.2 307
14/01/2021 20:40 4.7 95 0.0 0 0.0 5.1 18.4 296
14/01/2021 20:50 4.9 94 0.0 0 0.0 4.5 16.1 292
14/01/2021 21:00 4.9 94 0.0 0 0.1 4.7 16.8 297
14/01/2021 21:10 4.9 95 0.0 0 0.1 5.8 20.9 312
14/01/2021 21:20 4.9 95 0.0 0 0.0 5.8 20.7 315
14/01/2021 21:30 4.9 95 0.0 0 0.0 5.5 19.8 308
14/01/2021 21:40 4.9 95 0.0 0 0.0 5.7 20.6 306
14/01/2021 21:50 4.8 95 0.0 0 0.0 4.9 17.7 311
14/01/2021 22:00 4.5 95 0.0 0 0.1 4.8 17.2 314
14/01/2021 22:10 4.6 96 0.0 0 0.0 5.3 18.9 312
14/01/2021 22:20 4.6 96 0.0 0 0.0 5.3 19.0 314
14/01/2021 22:30 4.5 96 0.0 0 0.0 5.9 21.2 315
14/01/2021 22:40 4.5 96 0.0 0 0.1 6.4 23.0 317
14/01/2021 22:50 4.4 96 0.0 0 0.1 6.6 23.6 320
14/01/2021 23:00 4.3 96 0.0 0 0.0 6.1 22.0 315
14/01/2021 23:10 4.3 96 0.0 0 0.0 5.5 19.7 313
14/01/2021 23:20 4.4 96 0.0 0 0.0 5.8 20.8 298
14/01/2021 23:30 4.4 95 0.0 0 0.0 5.8 20.9 297
14/01/2021 23:40 4.4 94 0.0 0 0.0 5.9 21.4 308
14/01/2021 23:50 4.4 92 0.0 0 0.0 6.1 22.1 305
Anterior Página 1 de 1 Siguiente

NOTA: Tipo de datos según el color:
   - Valores diarios o 10 minutos correctos
   - Valores diarios calculados a partir de un número de datos 10 minutos menor que 144 y mayor que 120, o de un número de datos semihorarios menor que 48 y mayor que 40 (caso de las estaciones de INTIA Y Ministerio)
   - Valores diez minutos estimados


Contacto        Enlaces        Aviso legal